createdAt,value
2016-05-10T09:07:25.041Z,97931
2016-05-10T09:07:36.591Z,97928
2016-05-10T09:07:48.059Z,97930
2016-05-10T09:07:59.450Z,97921
2016-05-10T09:08:11.309Z,97921
2016-05-10T09:08:23.481Z,97921
2016-05-10T09:08:34.903Z,97932
2016-05-10T09:09:18.719Z,97923
2016-05-10T09:10:20.549Z,97942
2016-05-10T09:10:34.783Z,97931
2016-05-10T09:10:48.380Z,97936
2016-05-10T09:11:02.974Z,97925
2016-05-10T09:11:22.802Z,97922
2016-05-10T09:12:02.117Z,97936
2016-05-10T09:12:09.977Z,97924
2016-05-10T09:12:25.258Z,97924
2016-05-10T09:12:41.604Z,97924
2016-05-10T09:12:55.088Z,97924
2016-05-10T09:13:09.166Z,97924
2016-05-10T09:13:24.385Z,97930
2016-05-10T09:13:41.357Z,97921
2016-05-10T09:13:54.950Z,97929
2016-05-10T09:14:08.794Z,97935
2016-05-10T09:14:24.560Z,97926
2016-05-10T09:14:40.438Z,97918
2016-05-10T09:14:56.469Z,97932
2016-05-10T09:15:15.110Z,97932
2016-05-10T09:15:30.985Z,97923
2016-05-10T09:15:46.002Z,97923
2016-05-10T09:16:01.174Z,97935
2016-05-10T09:16:19.705Z,97921
2016-05-10T09:16:34.580Z,97926
2016-05-10T09:16:48.599Z,97926
2016-05-10T09:17:02.771Z,97921
2016-05-10T09:17:16.365Z,97926
2016-05-10T09:17:29.943Z,97920
2016-05-10T09:17:43.618Z,97918
2016-05-10T09:17:57.930Z,97923
2016-05-10T09:18:11.368Z,97926
2016-05-10T09:18:26.290Z,97935
2016-05-10T09:18:39.922Z,97932
2016-05-10T09:18:54.297Z,97932
2016-05-10T09:19:07.813Z,97932
2016-05-10T09:19:22.125Z,97940
2016-05-10T09:19:36.172Z,97923
2016-05-10T09:19:49.686Z,97937
2016-05-10T09:20:03.920Z,97929
2016-05-10T09:20:18.014Z,97937
2016-05-10T09:20:32.342Z,97937
2016-05-10T09:20:47.058Z,97932
2016-05-10T09:21:06.824Z,97946
2016-05-10T09:21:21.886Z,97946
2016-05-10T09:21:36.683Z,97946
2016-05-10T09:21:51.680Z,97949
2016-05-10T09:22:06.680Z,97946
2016-05-10T09:22:20.696Z,97951
2016-05-10T09:22:34.290Z,97949
2016-05-10T09:22:48.615Z,97954
2016-05-10T09:23:03.599Z,97957
2016-05-10T09:23:17.115Z,97957
2016-05-10T09:23:31.849Z,97957
2016-05-10T09:23:45.994Z,97960
2016-05-10T09:24:02.057Z,97960
2016-05-10T09:24:20.182Z,97960
2016-05-10T09:24:36.994Z,97966
2016-05-10T09:24:50.450Z,97969
2016-05-10T09:25:03.919Z,97952
2016-05-10T09:25:17.934Z,97977
2016-05-10T09:25:32.200Z,97972
2016-05-10T09:25:46.062Z,97969
2016-05-10T09:26:00.827Z,97966
2016-05-10T09:26:14.140Z,97969
2016-05-10T09:26:27.593Z,97969
2016-05-10T09:26:41.689Z,97971
2016-05-10T09:26:55.205Z,97963
2016-05-10T09:27:08.751Z,97974
2016-05-10T09:27:22.455Z,97974
2016-05-10T09:27:36.080Z,97971
2016-05-10T09:27:49.722Z,97971
2016-05-10T09:28:03.690Z,97963
2016-05-10T09:28:17.893Z,97963
2016-05-10T09:28:31.362Z,97971
2016-05-10T09:28:45.496Z,97983
2016-05-10T09:28:59.527Z,97974
2016-05-10T16:07:40.229Z,97738
2016-05-10T16:07:54.292Z,97738
2016-05-10T16:08:08.343Z,97735
2016-05-10T16:08:22.702Z,97738
2016-05-10T16:08:41.468Z,97738
2016-05-10T16:08:58.655Z,97735
2016-05-10T16:09:12.985Z,97729
2016-05-10T16:09:27.360Z,97735
2016-05-10T16:09:42.657Z,97733
2016-05-10T16:09:57.641Z,97727
2016-05-10T16:10:11.393Z,97733
2016-05-10T16:10:25.050Z,97733
2016-05-10T16:10:38.753Z,97724
2016-05-10T16:10:53.690Z,97738
2016-05-10T16:11:09.132Z,97730
2016-05-10T16:11:22.757Z,97727
2016-05-10T16:11:37.710Z,97730
2016-05-10T16:11:53.413Z,97727
2016-05-10T16:12:07.681Z,97724
2016-05-10T16:12:21.399Z,97730
2016-05-10T16:12:36.024Z,97715
2016-05-10T16:12:50.306Z,97721
2016-05-10T16:13:04.681Z,97727
2016-05-10T16:13:18.965Z,97732
2016-05-10T16:13:32.543Z,97724
2016-05-10T16:13:46.215Z,97718
2016-05-10T16:14:01.168Z,97715
2016-05-10T16:14:16.748Z,97726
2016-05-10T16:14:33.233Z,97720
2016-05-10T16:14:49.186Z,97715
2016-05-10T16:15:06.705Z,97720
2016-05-10T16:15:21.987Z,97726
2016-05-10T16:15:35.565Z,97735
2016-05-10T16:15:49.612Z,97729
2016-05-10T16:16:03.877Z,97720
